Time;durP1;ratioP1;P1;durP2;ratioP2;P2;SDS_P1;SDS_P2;PMS_P1;PMS_P2;Temp;Humidity;BMP_temperature;BMP_pressure;BME280_temperature;BME280_humidity;BME280_pressure;Samples;Min_cycle;Max_cycle;Signal;HPM_P1;HPM_P2
2022/10/11 00:00:08;;;;;;;10.48;6.65;;;;;;;11.95;100.00;100531.91;6373349;27;20490;-73
2022/10/11 00:03:13;;;;;;;16.77;8.15;;;;;;;12.00;100.00;100537.72;6354907;27;20062;-73
2022/10/11 00:06:16;;;;;;;14.23;7.25;;;;;;;11.99;100.00;100532.59;6372266;27;20043;-74
2022/10/11 00:09:17;;;;;;;12.40;7.30;;;;;;;12.00;100.00;100532.47;6371990;27;20074;-74
2022/10/11 00:12:22;;;;;;;13.48;7.20;;;;;;;12.05;100.00;100532.22;6354831;27;20051;-73
2022/10/11 00:15:23;;;;;;;13.82;7.32;;;;;;;12.07;100.00;100531.19;6373138;27;20047;-74
2022/10/11 00:18:24;;;;;;;13.60;6.05;;;;;;;12.07;100.00;100525.13;6371855;27;20456;-74
2022/10/11 00:21:27;;;;;;;12.45;6.75;;;;;;;12.06;100.00;100526.88;6372937;27;20043;-74
2022/10/11 00:24:28;;;;;;;10.35;6.22;;;;;;;12.06;100.00;100518.19;6373302;27;20046;-73
2022/10/11 00:27:28;;;;;;;14.07;7.10;;;;;;;12.10;100.00;100519.69;6373119;27;20039;-74
2022/10/11 00:30:30;;;;;;;11.20;6.03;;;;;;;12.13;100.00;100523.91;6373402;27;20050;-74
2022/10/11 00:33:30;;;;;;;11.88;6.50;;;;;;;12.22;100.00;100515.50;6371963;27;20182;-74
2022/10/11 00:36:31;;;;;;;12.77;7.57;;;;;;;12.24;100.00;100516.25;6372761;27;20070;-73
2022/10/11 00:39:34;;;;;;;10.52;6.60;;;;;;;12.26;100.00;100517.84;6372985;27;20404;-73
2022/10/11 00:42:35;;;;;;;12.55;6.43;;;;;;;12.27;100.00;100511.69;6372952;27;20088;-73
2022/10/11 00:45:36;;;;;;;12.43;7.53;;;;;;;12.31;100.00;100520.16;6375709;27;20075;-73
2022/10/11 00:48:49;;;;;;;13.85;6.93;;;;;;;12.32;100.00;100503.56;6378157;27;20114;-73
2022/10/11 00:51:52;;;;;;;9.40;5.85;;;;;;;12.37;100.00;100509.34;6378173;27;20039;-73
2022/10/11 00:54:53;;;;;;;11.00;6.57;;;;;;;12.32;100.00;100507.94;6377968;27;20068;-73
2022/10/11 00:57:55;;;;;;;11.95;6.50;;;;;;;12.32;100.00;100502.72;6376711;27;20067;-73
2022/10/11 01:00:57;;;;;;;10.55;6.75;;;;;;;12.41;100.00;100513.44;6377790;27;20563;-73
2022/10/11 01:04:00;;;;;;;11.27;6.30;;;;;;;12.44;100.00;100501.97;6377470;27;20043;-73
2022/10/11 01:07:01;;;;;;;9.88;6.57;;;;;;;12.46;100.00;100498.31;6376347;27;20479;-73
2022/10/11 01:10:04;;;;;;;11.70;6.80;;;;;;;12.46;100.00;100493.06;6377645;27;20686;-73
2022/10/11 01:13:12;;;;;;;11.30;6.55;;;;;;;12.47;100.00;100488.69;6376612;27;20044;-74
2022/10/11 01:16:34;;;;;;;11.15;5.63;;;;;;;12.50;100.00;100493.75;6375191;27;20499;-74
2022/10/11 01:19:54;;;;;;;8.80;5.80;;;;;;;12.50;100.00;100489.34;6377415;27;20479;-74
2022/10/11 01:23:10;;;;;;;12.73;6.00;;;;;;;12.58;100.00;100504.56;6375727;27;20054;-73
2022/10/11 01:26:19;;;;;;;9.85;6.07;;;;;;;12.54;100.00;100505.69;6376126;27;20539;-74
2022/10/11 01:29:36;;;;;;;11.88;5.90;;;;;;;12.53;100.00;100503.16;6376018;27;20054;-74
2022/10/11 01:32:43;;;;;;;13.73;6.60;;;;;;;12.57;100.00;100505.50;6375579;27;20035;-73
2022/10/11 01:35:53;;;;;;;11.75;5.93;;;;;;;12.57;100.00;100497.63;6376844;27;20375;-74
2022/10/11 01:39:24;;;;;;;11.75;6.57;;;;;;;12.58;100.00;100494.09;6376888;27;20042;-74
2022/10/11 01:42:27;;;;;;;14.63;6.93;;;;;;;12.57;100.00;100497.63;6371568;27;20063;-74
2022/10/11 01:45:32;;;;;;;9.40;5.78;;;;;;;12.49;100.00;100486.81;6375460;27;20096;-74
2022/10/11 01:48:45;;;;;;;8.95;5.80;;;;;;;12.46;100.00;100497.47;6375648;27;20054;-74
2022/10/11 01:51:54;;;;;;;10.32;6.07;;;;;;;12.48;100.00;100498.22;6376486;27;20046;-73
2022/10/11 01:55:37;;;;;;;12.07;6.13;;;;;;;12.57;100.00;100496.81;6358053;27;20510;-74
2022/10/11 01:58:56;;;;;;;8.65;5.55;;;;;;;12.65;100.00;100505.03;6364041;27;20061;-74
2022/10/11 02:02:03;;;;;;;12.32;5.63;;;;;;;12.65;100.00;100497.16;6376224;27;20126;-74
2022/10/11 02:05:25;;;;;;;10.15;5.47;;;;;;;12.61;100.00;100493.06;6376344;27;20126;-73
2022/10/11 02:08:34;;;;;;;7.07;4.72;;;;;;;12.64;100.00;100498.09;6375600;27;20115;-74
2022/10/11 02:11:35;;;;;;;10.68;5.63;;;;;;;12.60;100.00;100492.22;6376464;27;20486;-74
2022/10/11 02:14:41;;;;;;;7.93;5.22;;;;;;;12.59;100.00;100489.69;6374933;27;20039;-74
2022/10/11 02:17:56;;;;;;;11.90;5.95;;;;;;;12.54;100.00;100494.38;6375105;27;20043;-74
2022/10/11 02:21:01;;;;;;;9.80;5.50;;;;;;;12.52;100.00;100494.47;6374471;27;20059;-74
2022/10/11 02:24:07;;;;;;;9.80;5.32;;;;;;;12.53;100.00;100498.75;6376099;27;20160;-75
2022/10/11 02:27:12;;;;;;;8.75;5.47;;;;;;;12.52;100.00;100502.34;6376002;27;20043;-74
2022/10/11 02:30:14;;;;;;;8.75;5.63;;;;;;;12.53;100.00;100498.75;6374720;27;20050;-74
2022/10/11 02:33:17;;;;;;;;;;;;;;;12.54;100.00;100492.63;6376068;27;20398;-74
2022/10/11 02:36:30;;;;;;;;;;;;;;;12.52;100.00;100491.88;6375229;27;19926;-74
2022/10/11 02:39:35;;;;;;;;;;;;;;;12.48;100.00;100491.22;6375987;27;19972;-74
2022/10/11 02:42:43;;;;;;;11.45;4.95;;;;;;;12.47;100.00;100493.91;6375646;27;20335;-75
2022/10/11 02:45:58;;;;;;;8.35;5.50;;;;;;;12.47;100.00;100489.50;6375592;27;20043;-74
2022/10/11 02:49:01;;;;;;;8.32;5.55;;;;;;;12.44;100.00;100487.09;6374372;27;20051;-75
2022/10/11 02:52:04;;;;;;;9.40;5.75;;;;;;;12.45;100.00;100486.16;6374193;27;20047;-75
2022/10/11 02:55:06;;;;;;;8.68;5.25;;;;;;;12.44;100.00;100487.09;6375327;27;20479;-74
2022/10/11 02:58:07;;;;;;;8.15;4.97;;;;;;;12.41;100.00;100489.88;6373997;27;20043;-74
2022/10/11 03:01:07;;;;;;;11.50;6.30;;;;;;;12.43;100.00;100487.19;6375027;27;20046;-74
2022/10/11 03:04:08;;;;;;;9.55;5.78;;;;;;;12.42;100.00;100494.19;6373906;27;20114;-74
2022/10/11 03:07:11;;;;;;;10.23;5.35;;;;;;;12.46;100.00;100500.94;6374469;27;20078;-74
2022/10/11 03:10:12;;;;;;;11.02;5.63;;;;;;;12.46;100.00;100498.31;6374715;27;20046;-75
2022/10/11 03:13:13;;;;;;;9.15;5.65;;;;;;;12.44;100.00;100508.03;6373980;27;20039;-75
2022/10/11 03:16:16;;;;;;;9.20;5.35;;;;;;;12.46;100.00;100505.34;6373024;27;20035;-75
2022/10/11 03:19:16;;;;;;;8.75;5.85;;;;;;;12.43;100.00;100506.34;6373594;27;20062;-75
2022/10/11 03:22:17;;;;;;;10.30;5.43;;;;;;;12.44;100.00;100508.03;6373253;27;20419;-75
2022/10/11 03:25:20;;;;;;;12.02;6.45;;;;;;;12.48;100.00;100500.84;6374550;27;20051;-75
2022/10/11 03:28:21;;;;;;;12.93;5.78;;;;;;;12.45;100.00;100496.63;6374588;27;20058;-75
2022/10/11 03:31:22;;;;;;;10.52;6.13;;;;;;;12.45;100.00;100491.38;6373297;27;20043;-75
2022/10/11 03:34:23;;;;;;;9.68;5.78;;;;;;;12.46;100.00;100494.88;6372911;27;20586;-75
2022/10/11 03:37:26;;;;;;;8.75;5.43;;;;;;;12.54;100.00;100492.63;6373166;27;20047;-75
2022/10/11 03:40:27;;;;;;;11.75;5.65;;;;;;;12.60;100.00;100488.75;6373063;27;20380;-74
2022/10/11 03:43:28;;;;;;;11.98;6.25;;;;;;;12.59;100.00;100487.91;6374009;27;20046;-75
2022/10/11 03:46:28;;;;;;;8.25;5.60;;;;;;;12.58;100.00;100498.47;6372782;27;20122;-74
2022/10/11 03:49:29;;;;;;;12.52;6.72;;;;;;;12.58;100.00;100490.63;6372713;27;20130;-75
2022/10/11 03:52:30;;;;;;;8.93;6.00;;;;;;;12.58;100.00;100498.47;6374081;27;20127;-75
2022/10/11 03:55:31;;;;;;;12.67;7.23;;;;;;;12.52;100.00;100499.72;6373675;27;20571;-75
2022/10/11 03:58:32;;;;;;;15.35;7.68;;;;;;;12.53;100.00;100498.75;6372718;27;20391;-75
2022/10/11 04:01:36;;;;;;;11.25;6.93;;;;;;;12.52;100.00;100489.25;6372617;27;20043;-75
2022/10/11 04:04:37;;;;;;;13.68;6.35;;;;;;;12.58;100.00;100501.97;6373668;27;20424;-76
2022/10/11 04:07:38;;;;;;;14.73;7.47;;;;;;;12.63;100.00;100505.13;6358363;27;20110;-74
2022/10/11 04:10:40;;;;;;;12.63;7.28;;;;;;;12.66;100.00;100498.84;6399166;27;20050;-74
2022/10/11 04:13:41;;;;;;;11.10;6.32;;;;;;;12.67;100.00;100500.53;6364245;27;20491;-74
2022/10/11 04:16:43;;;;;;;11.73;6.70;;;;;;;12.65;100.00;100497.16;6345865;28;20046;-75
2022/10/11 04:19:45;;;;;;;9.57;6.55;;;;;;;12.61;100.00;100496.50;6346170;28;20036;-74
2022/10/11 04:22:45;;;;;;;10.00;6.28;;;;;;;12.57;100.00;100496.81;6383524;27;20415;-74
2022/10/11 04:25:47;;;;;;;10.88;6.80;;;;;;;12.63;100.00;100501.66;6371149;27;20043;-74
2022/10/11 04:28:47;;;;;;;10.10;6.18;;;;;;;12.61;100.00;100496.50;6372164;27;20047;-73
2022/10/11 04:31:48;;;;;;;11.38;6.18;;;;;;;12.64;100.00;100501.56;6371991;27;20114;-73
2022/10/11 04:34:52;;;;;;;8.15;6.35;;;;;;;12.67;100.00;100509.22;6359193;28;20062;-73
2022/10/11 04:37:52;;;;;;;13.30;6.20;;;;;;;12.60;100.00;100500.09;6379638;27;20047;-74
2022/10/11 04:40:53;;;;;;;9.27;5.70;;;;;;;12.59;100.00;100500.16;6346479;27;20071;-75
2022/10/11 04:43:56;;;;;;;14.10;7.13;;;;;;;12.60;100.00;100493.97;6357983;28;20100;-75
2022/10/11 04:46:57;;;;;;;10.98;5.75;;;;;;;12.66;100.00;100498.84;6371799;28;20051;-75
2022/10/11 04:49:57;;;;;;;12.23;6.90;;;;;;;12.65;100.00;100503.25;6354556;28;20070;-74
2022/10/11 04:52:58;;;;;;;9.82;6.40;;;;;;;12.63;100.00;100509.50;6372931;27;20050;-75
2022/10/11 04:56:04;;;;;;;9.40;5.90;;;;;;;12.67;100.00;100511.00;6359568;27;20479;-74
2022/10/11 04:59:10;;;;;;;9.23;5.97;;;;;;;12.67;100.00;100505.78;6346184;28;20040;-74
2022/10/11 05:02:11;;;;;;;9.50;6.00;;;;;;;12.69;100.00;100509.97;6347116;28;20123;-74
2022/10/11 05:05:16;;;;;;;8.23;5.53;;;;;;;12.75;100.00;100521.00;6345140;28;20043;-75
2022/10/11 05:08:17;;;;;;;10.10;5.95;;;;;;;12.70;100.00;100516.91;6346748;28;20040;-76
2022/10/11 05:11:20;;;;;;;12.25;7.03;;;;;;;12.67;100.00;100517.06;6347130;28;20388;-76
2022/10/11 05:14:21;;;;;;;12.70;6.80;;;;;;;12.72;100.00;100522.00;6345769;28;20533;-74
2022/10/11 05:17:21;;;;;;;9.35;6.03;;;;;;;12.74;100.00;100520.13;6345936;28;20040;-74
2022/10/11 05:20:24;;;;;;;12.45;6.28;;;;;;;12.79;100.00;100528.56;6345910;28;20547;-74
2022/10/11 05:23:28;;;;;;;12.30;7.05;;;;;;;12.78;100.00;100526.03;6347349;28;20043;-75
2022/10/11 05:26:29;;;;;;;13.27;7.00;;;;;;;12.78;100.00;100529.50;6345854;28;20044;-75
2022/10/11 05:29:30;;;;;;;10.23;5.63;;;;;;;12.77;100.00;100521.75;6346830;28;20490;-74
2022/10/11 05:32:31;;;;;;;11.38;7.18;;;;;;;12.80;100.00;100524.16;6350928;28;20126;-75
2022/10/11 05:35:31;;;;;;;11.05;6.63;;;;;;;12.80;100.00;100519.75;6353356;27;20461;-75
2022/10/11 05:38:32;;;;;;;11.50;6.40;;;;;;;12.80;100.00;100526.78;6370581;27;20138;-74
2022/10/11 05:41:33;;;;;;;9.93;6.00;;;;;;;12.77;100.00;100533.06;6368797;27;20036;-76
2022/10/11 05:44:34;;;;;;;9.68;6.07;;;;;;;12.78;100.00;100537.34;6368481;27;20051;-75
2022/10/11 05:47:34;;;;;;;8.38;6.03;;;;;;;12.72;100.00;100535.09;6351343;28;20040;-74
2022/10/11 05:50:36;;;;;;;10.00;6.13;;;;;;;12.84;100.00;100536.97;6350240;28;20039;-75
2022/10/11 05:53:40;;;;;;;15.23;6.28;;;;;;;12.88;100.00;100535.00;6367873;27;20043;-75
2022/10/11 05:56:40;;;;;;;8.80;6.38;;;;;;;12.93;100.00;100534.69;6376437;27;20054;-75
2022/10/11 05:59:41;;;;;;;7.43;5.88;;;;;;;13.05;100.00;100547.03;6377031;27;20360;-74
2022/10/11 06:02:42;;;;;;;13.88;6.40;;;;;;;13.05;100.00;100544.41;6375481;27;20047;-74
2022/10/11 06:05:43;;;;;;;10.40;6.57;;;;;;;13.18;100.00;100547.94;6376298;27;20043;-75
2022/10/11 06:08:44;;;;;;;14.25;7.45;;;;;;;13.14;100.00;100550.81;6372892;27;20101;-74
2022/10/11 06:11:45;;;;;;;13.50;7.03;;;;;;;13.28;100.00;100554.28;6349179;27;20054;-75
2022/10/11 06:14:46;;;;;;;13.95;8.30;;;;;;;13.35;100.00;100556.53;6349668;28;20395;-75
2022/10/11 06:17:47;;;;;;;12.52;7.95;;;;;;;13.46;100.00;100556.66;6365278;27;20123;-74
2022/10/11 06:20:47;;;;;;;12.48;7.00;;;;;;;13.60;100.00;100556.59;6349356;28;20051;-75
2022/10/11 06:23:50;;;;;;;11.88;7.40;;;;;;;13.76;100.00;100568.72;6349590;27;20043;-75
2022/10/11 06:26:50;;;;;;;;;;;;;;;13.79;100.00;100573.75;6348556;28;20130;-74
2022/10/11 06:29:51;;;;;;;8.77;5.78;;;;;;;13.85;100.00;100568.09;6348096;28;19920;-74
2022/10/11 06:32:52;;;;;;;12.80;7.28;;;;;;;13.95;100.00;100573.56;6347898;28;20199;-74
2022/10/11 06:35:57;;;;;;;10.25;7.10;;;;;;;13.95;100.00;100577.03;6349110;28;20043;-74
2022/10/11 06:39:00;;;;;;;13.13;7.53;;;;;;;13.91;100.00;100576.38;6347682;28;20051;-75
2022/10/11 06:42:01;;;;;;;10.88;7.20;;;;;;;13.92;100.00;100574.63;6348353;28;20445;-75
2022/10/11 06:45:04;;;;;;;9.98;6.78;;;;;;;13.98;100.00;100581.22;6347646;28;20104;-75
2022/10/11 06:48:05;;;;;;;11.30;7.50;;;;;;;14.07;100.00;100578.00;6347441;28;20259;-75
2022/10/11 06:51:09;;;;;;;15.48;8.20;;;;;;;14.18;100.00;100579.88;6362575;27;20415;-75
2022/10/11 06:54:14;;;;;;;23.88;8.68;;;;;;;14.26;100.00;100577.59;6365338;27;20059;-75
2022/10/11 06:57:18;;;;;;;14.90;7.72;;;;;;;14.40;100.00;100579.28;6356970;27;20039;-75
2022/10/11 07:00:20;;;;;;;14.05;7.53;;;;;;;14.49;100.00;100581.25;6351089;28;20081;-76
2022/10/11 07:03:21;;;;;;;20.37;7.27;;;;;;;14.64;100.00;100582.88;6331668;28;20423;-75
2022/10/11 07:06:26;;;;;;;15.00;7.88;;;;;;;14.79;100.00;100585.38;6348349;28;20050;-75
2022/10/11 07:09:29;;;;;;;13.70;6.90;;;;;;;14.86;100.00;100584.81;6346306;28;20103;-75
2022/10/11 07:12:30;;;;;;;13.38;6.45;;;;;;;14.94;100.00;100584.28;6348264;28;20084;-75
2022/10/11 07:15:31;;;;;;;17.25;7.25;;;;;;;15.08;100.00;100581.50;6346959;28;20407;-75
2022/10/11 07:18:31;;;;;;;9.80;6.20;;;;;;;15.23;100.00;100582.19;6346888;28;20114;-74
2022/10/11 07:21:35;;;;;;;9.88;6.30;;;;;;;15.40;100.00;100582.75;6346523;28;20066;-74
2022/10/11 07:24:36;;;;;;;8.25;5.30;;;;;;;15.58;100.00;100586.66;6348881;27;20036;-74
2022/10/11 07:27:39;;;;;;;10.25;6.25;;;;;;;15.73;100.00;100590.00;6354514;27;20093;-74
2022/10/11 07:30:41;;;;;;;11.68;5.72;;;;;;;15.85;100.00;100593.50;6358276;27;20492;-74
2022/10/11 07:33:42;;;;;;;16.90;9.40;;;;;;;15.92;100.00;100586.84;6352926;27;20039;-74
2022/10/11 07:36:42;;;;;;;19.80;9.07;;;;;;;16.16;100.00;100597.28;6353452;27;20116;-75
2022/10/11 07:39:43;;;;;;;14.48;8.20;;;;;;;16.22;100.00;100601.25;6360455;27;20039;-74
2022/10/11 07:42:44;;;;;;;14.98;7.63;;;;;;;16.13;100.00;100594.06;6393432;27;20055;-74
2022/10/11 07:45:47;;;;;;;21.02;8.35;;;;;;;16.15;100.00;100600.06;6353509;27;20452;-74
2022/10/11 07:48:49;;;;;;;12.63;6.45;;;;;;;16.20;100.00;100600.53;6371802;27;20066;-74
2022/10/11 07:51:49;;;;;;;8.63;5.18;;;;;;;16.31;100.00;100598.78;6373001;27;20042;-74
2022/10/11 07:54:50;;;;;;;9.30;4.95;;;;;;;16.46;100.00;100598.56;6372718;27;20370;-74
2022/10/11 07:57:51;;;;;;;10.00;6.13;;;;;;;16.54;100.00;100600.59;6355274;27;20553;-74
2022/10/11 08:00:52;;;;;;;10.40;5.25;;;;;;;16.69;100.00;100612.56;6347228;28;20046;-74
2022/10/11 08:03:55;;;;;;;10.15;5.82;;;;;;;16.74;100.00;100615.69;6347299;28;20046;-74
2022/10/11 08:06:56;;;;;;;7.78;4.35;;;;;;;16.83;100.00;100614.16;6345597;28;20192;-75
2022/10/11 08:09:57;;;;;;;6.10;4.75;;;;;;;16.84;100.00;100621.97;6346032;28;20035;-75
2022/10/11 08:13:00;;;;;;;8.68;5.35;;;;;;;16.99;100.00;100625.19;6345965;28;20063;-74
2022/10/11 08:16:08;;;;;;;7.88;5.10;;;;;;;17.08;98.38;100618.34;6347053;28;20056;-75
2022/10/11 08:19:09;;;;;;;7.93;4.40;;;;;;;17.15;100.00;100627.44;6345470;28;20044;-75
2022/10/11 08:22:10;;;;;;;6.97;4.63;;;;;;;17.04;97.93;100623.00;6347731;27;20070;-74
2022/10/11 08:25:11;;;;;;;8.20;4.32;;;;;;;17.08;96.30;100626.25;6345429;28;20047;-73
2022/10/11 08:28:16;;;;;;;7.30;4.20;;;;;;;17.00;96.71;100615.47;6361839;27;20042;-74
2022/10/11 08:31:17;;;;;;;7.68;3.83;;;;;;;17.08;98.86;100620.97;6371376;27;20038;-74
2022/10/11 08:34:17;;;;;;;6.10;3.80;;;;;;;17.07;96.07;100619.28;6368180;27;20040;-75
2022/10/11 08:37:23;;;;;;;5.63;4.05;;;;;;;17.08;96.06;100624.44;6383202;27;20073;-75
2022/10/11 08:40:24;;;;;;;10.35;5.18;;;;;;;17.08;99.10;100629.72;6358108;27;20484;-74
2022/10/11 08:43:43;;;;;;;15.10;5.30;;;;;;;17.06;99.49;100629.00;6360499;27;20047;-74
2022/10/11 08:46:50;;;;;;;7.68;5.32;;;;;;;17.09;100.00;100620.84;6356013;27;20039;-74
2022/10/11 08:49:51;;;;;;;9.35;6.20;;;;;;;17.05;100.00;100619.44;6366075;27;20411;-74
2022/10/11 08:53:01;;;;;;;13.20;5.95;;;;;;;17.18;100.00;100632.47;6347153;27;20046;-74
2022/10/11 08:56:02;;;;;;;8.25;5.60;;;;;;;17.06;100.00;100628.16;6363717;28;20072;-75
2022/10/11 08:59:12;;;;;;;14.63;7.75;;;;;;;17.14;100.00;100627.56;6353669;28;20112;-74
2022/10/11 09:02:35;;;;;;;12.52;7.18;;;;;;;17.19;100.00;100626.22;6349409;27;20062;-74
2022/10/11 09:05:50;;;;;;;10.18;6.35;;;;;;;17.26;100.00;100630.06;6371552;27;20043;-74
2022/10/11 09:09:00;;;;;;;13.77;6.85;;;;;;;17.24;100.00;100626.72;6358435;27;20044;-75
2022/10/11 09:12:31;;;;;;;11.50;6.63;;;;;;;17.20;100.00;100635.00;6357517;27;20395;-75
2022/10/11 09:15:57;;;;;;;13.07;7.20;;;;;;;17.20;100.00;100635.00;6358373;27;20047;-74
2022/10/11 09:19:06;;;;;;;12.20;6.85;;;;;;;17.38;100.00;100630.88;6391919;27;20062;-75
2022/10/11 09:22:32;;;;;;;16.52;9.27;;;;;;;17.19;100.00;100626.22;6399165;27;20051;-74
2022/10/11 09:25:43;;;;;;;16.08;9.45;;;;;;;17.33;100.00;100628.59;6365955;27;20419;-74
2022/10/11 09:29:06;;;;;;;11.77;7.30;;;;;;;17.43;100.00;100633.13;6351797;27;20044;-75
2022/10/11 09:32:14;;;;;;;12.43;6.97;;;;;;;17.51;100.00;100630.72;6353701;27;20043;-74
2022/10/11 09:35:23;;;;;;;12.48;6.90;;;;;;;17.58;100.00;100625.78;6370327;27;20068;-74
2022/10/11 09:38:26;;;;;;;10.73;7.18;;;;;;;17.60;100.00;100629.13;6357434;27;20043;-74
2022/10/11 09:42:06;;;;;;;13.63;6.78;;;;;;;17.73;98.67;100629.81;6377207;27;20211;-74
2022/10/11 09:45:35;;;;;;;10.75;5.82;;;;;;;17.83;98.12;100622.84;6350827;28;20407;-74
2022/10/11 09:48:40;;;;;;;8.43;5.45;;;;;;;17.98;95.41;100631.28;6358052;27;20495;-74
2022/10/11 09:51:48;;;;;;;8.25;4.78;;;;;;;18.07;92.56;100630.50;6350026;27;20048;-74
2022/10/11 09:54:55;;;;;;;12.25;5.05;;;;;;;18.18;91.91;100642.00;6350106;28;20043;-74
2022/10/11 09:57:56;;;;;;;8.18;4.97;;;;;;;18.23;90.09;100635.38;6348767;28;20404;-74
2022/10/11 10:01:05;;;;;;;11.00;5.88;;;;;;;18.24;90.31;100633.56;6350319;27;20523;-75
2022/10/11 10:04:11;;;;;;;9.68;6.03;;;;;;;18.28;87.81;100634.97;6349904;28;20672;-75
2022/10/11 10:07:14;;;;;;;10.00;5.43;;;;;;;18.42;89.41;100631.16;6361514;27;20486;-75
2022/10/11 10:10:34;;;;;;;8.95;5.45;;;;;;;18.37;87.03;100639.50;6375505;27;20047;-75
2022/10/11 10:13:50;;;;;;;10.80;5.32;;;;;;;18.41;86.75;100637.41;6375268;27;20479;-75
2022/10/11 10:17:05;;;;;;;10.27;5.88;;;;;;;18.46;85.52;100636.06;6374099;27;20130;-75
2022/10/11 10:20:18;;;;;;;9.40;5.93;;;;;;;18.41;84.60;100640.03;6350859;27;20082;-74
2022/10/11 10:23:28;;;;;;;9.00;5.50;;;;;;;18.20;87.24;100638.28;6358495;27;20039;-74
2022/10/11 10:26:30;;;;;;;9.43;5.60;;;;;;;18.07;87.02;100635.78;6374629;27;20418;-74
2022/10/11 10:29:34;;;;;;;9.50;5.80;;;;;;;18.21;86.84;100633.81;6349681;27;20100;-74
2022/10/11 10:32:41;;;;;;;9.80;5.10;;;;;;;18.38;84.99;100640.31;6361494;27;20054;-75
2022/10/11 10:35:51;;;;;;;9.00;5.72;;;;;;;18.41;84.31;100632.97;6374455;27;20035;-75
2022/10/11 10:39:04;;;;;;;8.68;5.22;;;;;;;18.46;82.45;100640.50;6351334;27;20035;-74
2022/10/11 10:42:18;;;;;;;7.70;4.57;;;;;;;18.50;82.38;100637.47;6348842;28;20185;-75
2022/10/11 10:45:24;;;;;;;10.95;5.43;;;;;;;18.63;84.96;100639.91;6358885;27;20043;-74
2022/10/11 10:48:41;;;;;;;8.45;4.60;;;;;;;18.67;82.38;100625.44;6342132;28;20048;-74
2022/10/11 10:51:49;;;;;;;7.93;5.30;;;;;;;18.70;78.96;100625.19;6348845;28;20054;-74
2022/10/11 10:55:05;;;;;;;6.47;4.65;;;;;;;18.85;79.73;100625.69;6403648;27;20107;-74
2022/10/11 10:58:42;;;;;;;9.45;4.65;;;;;;;18.76;78.14;100626.47;6372971;27;20035;-74
2022/10/11 11:02:13;;;;;;;8.07;4.20;;;;;;;19.10;78.32;100624.38;6358262;27;20039;-74
2022/10/11 11:05:17;;;;;;;8.82;4.53;;;;;;;19.21;77.74;100626.09;6324155;27;20495;-74
2022/10/11 11:08:33;;;;;;;6.90;4.10;;;;;;;19.12;74.66;100626.91;6346040;27;20407;-75
2022/10/11 11:11:46;;;;;;;6.25;4.15;;;;;;;19.18;76.81;100628.19;6372973;27;20075;-75
2022/10/11 11:15:12;;;;;;;10.43;4.47;;;;;;;19.07;76.20;100621.19;6372486;27;20061;-75
2022/10/11 11:18:26;;;;;;;7.65;4.47;;;;;;;19.17;77.56;100632.66;6370675;27;20513;-75
2022/10/11 11:21:57;;;;;;;8.48;4.30;;;;;;;19.15;74.38;100629.31;6359189;27;20059;-75
2022/10/11 11:25:18;;;;;;;7.60;4.72;;;;;;;19.24;76.50;100625.81;6367710;27;20050;-76
2022/10/11 11:28:25;;;;;;;7.78;4.07;;;;;;;19.11;73.90;100622.59;6370468;27;20486;-75
2022/10/11 11:31:53;;;;;;;14.70;4.45;;;;;;;19.05;77.75;100631.06;6372480;27;20486;-75
2022/10/11 11:35:29;;;;;;;6.57;4.45;;;;;;;19.07;81.08;100626.50;6373697;27;20050;-74
2022/10/11 11:38:52;;;;;;;6.95;4.13;;;;;;;19.06;79.99;100620.34;6358844;27;20463;-75
2022/10/11 11:42:24;;;;;;;6.20;3.65;;;;;;;19.15;75.86;100621.34;6396187;27;20034;-74
2022/10/11 11:45:49;;;;;;;7.72;3.83;;;;;;;19.23;75.22;100618.88;6356873;27;20054;-75
2022/10/11 11:48:52;;;;;;;7.30;3.88;;;;;;;19.15;75.44;100615.22;6359662;27;20050;-74
2022/10/11 11:51:56;;;;;;;7.90;4.30;;;;;;;19.06;76.52;100619.50;6348443;27;20159;-75
2022/10/11 11:55:09;;;;;;;5.53;3.58;;;;;;;19.12;78.67;100616.31;6353278;27;20035;-76
2022/10/11 11:58:33;;;;;;;6.82;3.58;;;;;;;19.20;79.58;100618.31;6346130;28;20047;-75
2022/10/11 12:01:37;;;;;;;6.38;4.30;;;;;;;19.18;78.57;100610.50;6347108;27;20134;-75
2022/10/11 12:04:42;;;;;;;6.97;4.57;;;;;;;19.15;76.62;100610.78;6371453;27;20500;-75
2022/10/11 12:07:52;;;;;;;4.95;3.88;;;;;;;19.14;78.13;100611.75;6354075;27;20051;-75
2022/10/11 12:10:57;;;;;;;7.57;4.35;;;;;;;19.08;76.01;100607.00;6349595;27;20422;-75
2022/10/11 12:25:15;;;;;;;9.73;5.80;;;;;;;19.10;80.26;100599.75;6331361;27;20753;-76
2022/10/11 12:28:37;;;;;;;9.65;5.53;;;;;;;19.15;82.12;100594.06;6330995;28;20131;-75
2022/10/11 12:31:37;;;;;;;10.17;6.23;;;;;;;19.03;83.95;100599.47;6288627;28;20071;-76
2022/10/11 12:34:43;;;;;;;9.80;5.97;;;;;;;19.08;82.19;100599.06;6314724;28;20484;-76
2022/10/11 12:37:49;;;;;;;7.13;5.28;;;;;;;19.11;82.63;100596.97;6293138;28;20041;-76
2022/10/11 12:40:55;;;;;;;7.38;5.10;;;;;;;19.05;80.87;100594.06;6274923;28;20068;-76
2022/10/11 12:44:17;;;;;;;7.45;4.80;;;;;;;19.04;80.51;100589.72;6292973;28;20045;-76
2022/10/11 12:47:40;;;;;;;8.00;5.00;;;;;;;19.25;80.65;100584.31;6294504;28;20036;-76
2022/10/11 12:50:59;;;;;;;12.30;5.28;;;;;;;19.39;82.59;100583.94;6306899;28;20036;-75
2022/10/11 12:54:06;;;;;;;14.10;5.22;;;;;;;19.29;80.39;100578.66;6317553;28;20075;-75
2022/10/11 12:57:28;;;;;;;9.38;4.90;;;;;;;19.38;81.67;100579.63;6317824;28;20407;-76
2022/10/11 13:00:33;;;;;;;8.48;4.82;;;;;;;19.38;79.74;100584.09;6313053;28;20143;-75
2022/10/11 13:03:39;;;;;;;9.63;6.18;;;;;;;19.33;78.90;100574.75;6292505;28;20560;-76
2022/10/11 13:06:52;;;;;;;8.77;5.80;;;;;;;19.35;82.38;100579.88;6291151;28;20120;-76
2022/10/11 13:09:54;;;;;;;8.55;5.45;;;;;;;19.48;79.55;100577.00;6307661;28;20482;-76
2022/10/11 13:12:58;;;;;;;7.15;4.93;;;;;;;19.62;77.43;100575.72;6293679;28;20551;-76
2022/10/11 13:16:06;;;;;;;7.40;4.90;;;;;;;19.66;75.54;100564.75;6317394;28;20040;-75
2022/10/11 13:19:12;;;;;;;6.30;5.03;;;;;;;19.61;76.43;100569.59;6317183;28;20040;-75
2022/10/11 13:22:21;;;;;;;8.68;4.95;;;;;;;19.67;75.80;100566.41;6309029;28;20055;-76
2022/10/11 13:25:24;;;;;;;7.13;4.95;;;;;;;19.60;77.16;100565.28;6301046;28;20075;-76
2022/10/11 13:28:30;;;;;;;8.43;5.18;;;;;;;19.63;76.96;100565.00;6282657;28;20051;-76
2022/10/11 13:31:33;;;;;;;8.35;5.40;;;;;;;19.56;77.27;100565.69;6257114;28;20134;-75
2022/10/11 13:34:38;;;;;;;10.25;4.70;;;;;;;19.51;75.85;100572.25;6278255;28;20032;-75
2022/10/11 13:37:45;;;;;;;7.93;4.47;;;;;;;19.34;77.41;100567.66;6285380;28;20549;-75
2022/10/11 13:40:46;;;;;;;7.53;4.90;;;;;;;19.39;74.59;100561.94;6298613;28;20490;-75
2022/10/11 13:43:48;;;;;;;5.95;3.97;;;;;;;19.36;77.28;100560.41;6298314;28;20446;-75
2022/10/11 13:46:49;;;;;;;8.38;4.70;;;;;;;19.32;77.33;100569.59;6299908;28;20040;-75
2022/10/11 13:50:09;;;;;;;7.07;4.37;;;;;;;19.15;76.28;100567.59;6315422;28;20074;-75
2022/10/11 13:53:10;;;;;;;8.38;5.53;;;;;;;19.15;78.95;100573.75;6299426;28;20037;-74
2022/10/11 13:56:11;;;;;;;8.30;5.40;;;;;;;18.97;79.30;100572.75;6298235;28;20144;-75
2022/10/11 13:59:24;;;;;;;11.00;5.40;;;;;;;19.01;79.47;100579.44;6299405;28;20032;-75
2022/10/11 14:02:26;;;;;;;14.40;6.30;;;;;;;19.02;80.35;100575.78;6296988;28;20393;-75
2022/10/11 14:05:29;;;;;;;;;;;;;;;18.93;79.26;100572.16;6272879;28;20488;-75
2022/10/11 14:08:53;;;;;;;7.80;5.30;;;;;;;18.91;80.39;100584.69;6273993;28;19920;-75
2022/10/11 14:11:54;;;;;;;10.40;5.50;;;;;;;18.80;82.76;100572.41;6283059;28;20068;-75
2022/10/11 14:14:56;;;;;;;8.27;5.75;;;;;;;18.83;85.04;100573.94;6290733;28;20095;-75
2022/10/11 14:17:59;;;;;;;8.40;5.20;;;;;;;18.81;83.09;100567.94;6286369;28;20048;-75
2022/10/11 14:21:18;;;;;;;12.00;5.72;;;;;;;18.73;83.61;100572.06;6296597;28;20515;-75
2022/10/11 14:24:22;;;;;;;7.35;5.32;;;;;;;18.71;85.46;100576.63;6293795;28;20567;-75
2022/10/11 14:27:26;;;;;;;9.40;5.15;;;;;;;18.70;89.75;100571.50;6286365;28;20072;-75